sensor_id;sensor_type;location;lat;lon;timestamp;P1;durP1;ratioP1;P2;durP2;ratioP2
46282;SDS011;32017;43.700;11.820;2022-07-17T00:02:03;1.60;;;0.88;;
46282;SDS011;32017;43.700;11.820;2022-07-17T00:04:24;2.72;;;0.85;;
46282;SDS011;32017;43.700;11.820;2022-07-17T00:06:45;1.40;;;1.10;;
46282;SDS011;32017;43.700;11.820;2022-07-17T00:09:06;1.55;;;0.88;;
46282;SDS011;32017;43.700;11.820;2022-07-17T00:11:26;2.92;;;0.80;;
46282;SDS011;32017;43.700;11.820;2022-07-17T00:13:48;1.42;;;0.88;;
46282;SDS011;32017;43.700;11.820;2022-07-17T00:16:08;0.80;;;0.80;;
46282;SDS011;32017;43.700;11.820;2022-07-17T00:18:29;2.58;;;0.90;;
46282;SDS011;32017;43.700;11.820;2022-07-17T00:20:50;0.90;;;0.90;;
46282;SDS011;32017;43.700;11.820;2022-07-17T00:23:11;4.07;;;0.90;;
46282;SDS011;32017;43.700;11.820;2022-07-17T00:25:31;1.70;;;0.93;;
46282;SDS011;32017;43.700;11.820;2022-07-17T00:27:52;0.80;;;0.80;;
46282;SDS011;32017;43.700;11.820;2022-07-17T00:30:12;5.07;;;0.85;;
46282;SDS011;32017;43.700;11.820;2022-07-17T00:32:34;2.92;;;0.80;;
46282;SDS011;32017;43.700;11.820;2022-07-17T00:34:55;1.27;;;1.17;;
46282;SDS011;32017;43.700;11.820;2022-07-17T00:37:16;0.80;;;0.80;;
46282;SDS011;32017;43.700;11.820;2022-07-17T00:39:37;1.45;;;0.80;;
46282;SDS011;32017;43.700;11.820;2022-07-17T00:41:59;2.90;;;0.90;;
46282;SDS011;32017;43.700;11.820;2022-07-17T00:44:20;0.95;;;0.90;;
46282;SDS011;32017;43.700;11.820;2022-07-17T00:46:41;1.55;;;0.80;;
46282;SDS011;32017;43.700;11.820;2022-07-17T00:49:02;3.20;;;0.90;;
46282;SDS011;32017;43.700;11.820;2022-07-17T00:51:24;1.65;;;0.80;;
46282;SDS011;32017;43.700;11.820;2022-07-17T00:53:45;0.90;;;0.90;;
46282;SDS011;32017;43.700;11.820;2022-07-17T00:56:08;3.15;;;1.00;;
46282;SDS011;32017;43.700;11.820;2022-07-17T00:58:32;0.90;;;0.90;;
46282;SDS011;32017;43.700;11.820;2022-07-17T01:00:55;1.15;;;0.90;;
46282;SDS011;32017;43.700;11.820;2022-07-17T01:03:16;2.40;;;0.90;;
46282;SDS011;32017;43.700;11.820;2022-07-17T01:05:38;1.17;;;0.90;;
46282;SDS011;32017;43.700;11.820;2022-07-17T01:07:59;2.78;;;0.98;;
46282;SDS011;32017;43.700;11.820;2022-07-17T01:10:20;0.95;;;0.93;;
46282;SDS011;32017;43.700;11.820;2022-07-17T01:12:41;1.00;;;1.00;;
46282;SDS011;32017;43.700;11.820;2022-07-17T01:15:02;1.13;;;1.02;;
46282;SDS011;32017;43.700;11.820;2022-07-17T01:17:23;3.22;;;1.00;;
46282;SDS011;32017;43.700;11.820;2022-07-17T01:19:44;1.00;;;1.00;;
46282;SDS011;32017;43.700;11.820;2022-07-17T01:22:05;2.55;;;0.90;;
46282;SDS011;32017;43.700;11.820;2022-07-17T01:24:25;2.15;;;0.90;;
46282;SDS011;32017;43.700;11.820;2022-07-17T01:26:47;1.10;;;1.00;;
46282;SDS011;32017;43.700;11.820;2022-07-17T01:29:10;2.13;;;0.95;;
46282;SDS011;32017;43.700;11.820;2022-07-17T01:31:31;1.10;;;0.90;;
46282;SDS011;32017;43.700;11.820;2022-07-17T01:33:51;0.90;;;0.90;;
46282;SDS011;32017;43.700;11.820;2022-07-17T01:36:12;0.90;;;0.90;;
46282;SDS011;32017;43.700;11.820;2022-07-17T01:38:33;3.38;;;1.00;;
46282;SDS011;32017;43.700;11.820;2022-07-17T01:40:54;3.35;;;1.30;;
46282;SDS011;32017;43.700;11.820;2022-07-17T01:43:15;1.23;;;1.00;;
46282;SDS011;32017;43.700;11.820;2022-07-17T01:45:35;2.40;;;1.05;;
46282;SDS011;32017;43.700;11.820;2022-07-17T01:47:57;1.52;;;1.00;;
46282;SDS011;32017;43.700;11.820;2022-07-17T01:50:17;1.67;;;0.90;;
46282;SDS011;32017;43.700;11.820;2022-07-17T01:52:39;1.10;;;1.10;;
46282;SDS011;32017;43.700;11.820;2022-07-17T01:55:03;1.35;;;0.90;;
46282;SDS011;32017;43.700;11.820;2022-07-17T01:57:25;1.83;;;1.25;;
46282;SDS011;32017;43.700;11.820;2022-07-17T01:59:46;0.90;;;0.90;;
46282;SDS011;32017;43.700;11.820;2022-07-17T02:02:08;3.70;;;1.00;;
46282;SDS011;32017;43.700;11.820;2022-07-17T02:04:29;2.03;;;0.90;;
46282;SDS011;32017;43.700;11.820;2022-07-17T02:06:53;1.00;;;1.00;;
46282;SDS011;32017;43.700;11.820;2022-07-17T02:09:14;1.10;;;1.10;;
46282;SDS011;32017;43.700;11.820;2022-07-17T02:11:35;0.93;;;0.88;;
46282;SDS011;32017;43.700;11.820;2022-07-17T02:13:56;1.00;;;1.00;;
46282;SDS011;32017;43.700;11.820;2022-07-17T02:16:17;1.58;;;1.10;;
46282;SDS011;32017;43.700;11.820;2022-07-17T02:18:38;1.15;;;1.15;;
46282;SDS011;32017;43.700;11.820;2022-07-17T02:20:58;1.35;;;1.33;;
46282;SDS011;32017;43.700;11.820;2022-07-17T02:23:19;0.95;;;0.95;;
46282;SDS011;32017;43.700;11.820;2022-07-17T02:25:40;1.10;;;1.00;;
46282;SDS011;32017;43.700;11.820;2022-07-17T02:28:00;1.00;;;1.00;;
46282;SDS011;32017;43.700;11.820;2022-07-17T02:30:21;1.00;;;1.00;;
46282;SDS011;32017;43.700;11.820;2022-07-17T02:32:42;2.15;;;1.00;;
46282;SDS011;32017;43.700;11.820;2022-07-17T02:35:04;0.98;;;0.98;;
46282;SDS011;32017;43.700;11.820;2022-07-17T02:37:26;1.13;;;1.02;;
46282;SDS011;32017;43.700;11.820;2022-07-17T02:39:47;1.10;;;1.10;;
46282;SDS011;32017;43.700;11.820;2022-07-17T02:42:17;1.00;;;0.98;;
46282;SDS011;32017;43.700;11.820;2022-07-17T02:44:39;1.00;;;1.00;;
46282;SDS011;32017;43.700;11.820;2022-07-17T02:47:00;1.02;;;0.90;;
46282;SDS011;32017;43.700;11.820;2022-07-17T02:49:21;1.00;;;1.00;;
46282;SDS011;32017;43.700;11.820;2022-07-17T02:51:42;1.15;;;1.10;;
46282;SDS011;32017;43.700;11.820;2022-07-17T02:54:02;1.13;;;1.08;;
46282;SDS011;32017;43.700;11.820;2022-07-17T02:56:23;3.38;;;1.25;;
46282;SDS011;32017;43.700;11.820;2022-07-17T02:58:44;1.30;;;1.30;;
46282;SDS011;32017;43.700;11.820;2022-07-17T03:01:05;2.05;;;1.10;;
46282;SDS011;32017;43.700;11.820;2022-07-17T03:03:25;1.38;;;1.23;;
46282;SDS011;32017;43.700;11.820;2022-07-17T03:05:47;2.55;;;1.13;;
46282;SDS011;32017;43.700;11.820;2022-07-17T03:08:08;1.25;;;1.25;;
46282;SDS011;32017;43.700;11.820;2022-07-17T03:10:28;1.10;;;1.05;;
46282;SDS011;32017;43.700;11.820;2022-07-17T03:12:49;1.02;;;1.02;;
46282;SDS011;32017;43.700;11.820;2022-07-17T03:15:10;1.00;;;1.00;;
46282;SDS011;32017;43.700;11.820;2022-07-17T03:17:32;2.40;;;1.50;;
46282;SDS011;32017;43.700;11.820;2022-07-17T03:19:53;1.95;;;1.10;;
46282;SDS011;32017;43.700;11.820;2022-07-17T03:22:13;2.10;;;1.38;;
46282;SDS011;32017;43.700;11.820;2022-07-17T03:24:34;1.10;;;1.10;;
46282;SDS011;32017;43.700;11.820;2022-07-17T03:26:55;1.67;;;1.10;;
46282;SDS011;32017;43.700;11.820;2022-07-17T03:29:15;1.20;;;1.20;;
46282;SDS011;32017;43.700;11.820;2022-07-17T03:31:37;1.20;;;1.20;;
46282;SDS011;32017;43.700;11.820;2022-07-17T03:33:58;1.58;;;1.48;;
46282;SDS011;32017;43.700;11.820;2022-07-17T03:36:19;1.77;;;1.67;;
46282;SDS011;32017;43.700;11.820;2022-07-17T03:38:40;1.10;;;1.10;;
46282;SDS011;32017;43.700;11.820;2022-07-17T03:41:01;1.38;;;1.38;;
46282;SDS011;32017;43.700;11.820;2022-07-17T03:43:22;1.13;;;1.13;;
46282;SDS011;32017;43.700;11.820;2022-07-17T03:45:42;1.10;;;1.10;;
46282;SDS011;32017;43.700;11.820;2022-07-17T03:48:03;1.23;;;1.20;;
46282;SDS011;32017;43.700;11.820;2022-07-17T03:50:23;1.15;;;1.15;;
46282;SDS011;32017;43.700;11.820;2022-07-17T03:52:44;2.47;;;1.20;;
46282;SDS011;32017;43.700;11.820;2022-07-17T03:55:05;1.50;;;1.13;;
46282;SDS011;32017;43.700;11.820;2022-07-17T03:57:26;1.10;;;1.10;;
46282;SDS011;32017;43.700;11.820;2022-07-17T03:59:47;1.80;;;1.70;;
46282;SDS011;32017;43.700;11.820;2022-07-17T04:02:07;1.35;;;1.20;;
46282;SDS011;32017;43.700;11.820;2022-07-17T04:04:28;2.50;;;1.35;;
46282;SDS011;32017;43.700;11.820;2022-07-17T04:06:48;4.00;;;1.20;;
46282;SDS011;32017;43.700;11.820;2022-07-17T04:09:09;1.48;;;1.48;;
46282;SDS011;32017;43.700;11.820;2022-07-17T04:11:29;2.17;;;1.60;;
46282;SDS011;32017;43.700;11.820;2022-07-17T04:13:50;2.50;;;1.55;;
46282;SDS011;32017;43.700;11.820;2022-07-17T04:16:11;1.45;;;1.45;;
46282;SDS011;32017;43.700;11.820;2022-07-17T04:18:32;1.13;;;1.10;;
46282;SDS011;32017;43.700;11.820;2022-07-17T04:23:16;3.22;;;1.50;;
46282;SDS011;32017;43.700;11.820;2022-07-17T04:25:37;1.13;;;1.13;;
46282;SDS011;32017;43.700;11.820;2022-07-17T04:27:58;1.95;;;1.85;;
46282;SDS011;32017;43.700;11.820;2022-07-17T04:30:19;1.75;;;1.30;;
46282;SDS011;32017;43.700;11.820;2022-07-17T04:32:39;1.42;;;1.42;;
46282;SDS011;32017;43.700;11.820;2022-07-17T04:35:00;1.63;;;1.52;;
46282;SDS011;32017;43.700;11.820;2022-07-17T04:37:21;2.75;;;1.20;;
46282;SDS011;32017;43.700;11.820;2022-07-17T04:39:41;3.33;;;1.15;;
46282;SDS011;32017;43.700;11.820;2022-07-17T04:42:03;2.97;;;1.38;;
46282;SDS011;32017;43.700;11.820;2022-07-17T04:44:23;3.70;;;1.60;;
46282;SDS011;32017;43.700;11.820;2022-07-17T04:46:45;2.60;;;1.60;;
46282;SDS011;32017;43.700;11.820;2022-07-17T04:49:06;1.77;;;1.67;;
46282;SDS011;32017;43.700;11.820;2022-07-17T04:51:26;1.23;;;1.23;;
46282;SDS011;32017;43.700;11.820;2022-07-17T04:53:48;2.10;;;2.05;;
46282;SDS011;32017;43.700;11.820;2022-07-17T04:56:08;6.88;;;1.88;;
46282;SDS011;32017;43.700;11.820;2022-07-17T04:58:29;2.10;;;1.90;;
46282;SDS011;32017;43.700;11.820;2022-07-17T05:00:49;2.83;;;1.77;;
46282;SDS011;32017;43.700;11.820;2022-07-17T05:03:10;1.77;;;1.75;;
46282;SDS011;32017;43.700;11.820;2022-07-17T05:05:31;1.55;;;1.23;;
46282;SDS011;32017;43.700;11.820;2022-07-17T05:07:52;2.15;;;1.60;;
46282;SDS011;32017;43.700;11.820;2022-07-17T05:10:13;1.67;;;1.58;;
46282;SDS011;32017;43.700;11.820;2022-07-17T05:12:34;1.67;;;1.58;;
46282;SDS011;32017;43.700;11.820;2022-07-17T05:14:55;1.58;;;1.58;;
46282;SDS011;32017;43.700;11.820;2022-07-17T05:17:16;2.17;;;1.52;;
46282;SDS011;32017;43.700;11.820;2022-07-17T05:19:37;1.73;;;1.30;;
46282;SDS011;32017;43.700;11.820;2022-07-17T05:21:59;2.47;;;1.10;;
46282;SDS011;32017;43.700;11.820;2022-07-17T05:24:19;1.30;;;1.10;;
46282;SDS011;32017;43.700;11.820;2022-07-17T05:26:40;1.95;;;1.33;;
46282;SDS011;32017;43.700;11.820;2022-07-17T05:29:01;2.05;;;1.10;;
46282;SDS011;32017;43.700;11.820;2022-07-17T05:31:22;1.20;;;1.20;;
46282;SDS011;32017;43.700;11.820;2022-07-17T05:33:43;1.30;;;1.30;;
46282;SDS011;32017;43.700;11.820;2022-07-17T05:36:03;3.15;;;1.17;;
46282;SDS011;32017;43.700;11.820;2022-07-17T05:38:25;1.40;;;1.30;;
46282;SDS011;32017;43.700;11.820;2022-07-17T05:40:45;1.30;;;1.30;;
46282;SDS011;32017;43.700;11.820;2022-07-17T05:43:06;4.38;;;1.20;;
46282;SDS011;32017;43.700;11.820;2022-07-17T05:45:26;2.13;;;1.60;;
46282;SDS011;32017;43.700;11.820;2022-07-17T05:47:47;2.25;;;1.40;;
46282;SDS011;32017;43.700;11.820;2022-07-17T05:50:08;1.85;;;1.35;;
46282;SDS011;32017;43.700;11.820;2022-07-17T05:52:28;1.48;;;1.48;;
46282;SDS011;32017;43.700;11.820;2022-07-17T05:54:49;1.73;;;1.20;;
46282;SDS011;32017;43.700;11.820;2022-07-17T05:57:10;1.45;;;1.35;;
46282;SDS011;32017;43.700;11.820;2022-07-17T05:59:30;1.33;;;1.10;;
46282;SDS011;32017;43.700;11.820;2022-07-17T06:01:51;1.00;;;1.00;;
46282;SDS011;32017;43.700;11.820;2022-07-17T06:04:12;2.15;;;1.05;;
46282;SDS011;32017;43.700;11.820;2022-07-17T06:06:33;1.10;;;1.10;;
46282;SDS011;32017;43.700;11.820;2022-07-17T06:08:53;1.00;;;1.00;;
46282;SDS011;32017;43.700;11.820;2022-07-17T06:11:14;1.25;;;1.25;;
46282;SDS011;32017;43.700;11.820;2022-07-17T06:13:34;1.20;;;1.20;;
46282;SDS011;32017;43.700;11.820;2022-07-17T06:15:55;0.90;;;0.90;;
46282;SDS011;32017;43.700;11.820;2022-07-17T06:18:18;1.23;;;1.10;;
46282;SDS011;32017;43.700;11.820;2022-07-17T06:20:39;1.30;;;1.30;;
46282;SDS011;32017;43.700;11.820;2022-07-17T06:23:00;2.25;;;1.05;;
46282;SDS011;32017;43.700;11.820;2022-07-17T06:25:20;0.90;;;0.90;;
46282;SDS011;32017;43.700;11.820;2022-07-17T06:27:41;0.90;;;0.90;;
46282;SDS011;32017;43.700;11.820;2022-07-17T06:30:02;2.25;;;1.13;;
46282;SDS011;32017;43.700;11.820;2022-07-17T06:32:23;2.08;;;1.00;;
46282;SDS011;32017;43.700;11.820;2022-07-17T06:34:44;1.50;;;0.90;;
46282;SDS011;32017;43.700;11.820;2022-07-17T06:37:04;1.45;;;1.35;;
46282;SDS011;32017;43.700;11.820;2022-07-17T06:39:25;1.08;;;1.08;;
46282;SDS011;32017;43.700;11.820;2022-07-17T06:41:46;0.93;;;0.80;;
46282;SDS011;32017;43.700;11.820;2022-07-17T06:44:06;0.85;;;0.85;;
46282;SDS011;32017;43.700;11.820;2022-07-17T06:46:27;0.80;;;0.80;;
46282;SDS011;32017;43.700;11.820;2022-07-17T06:48:47;1.88;;;0.80;;
46282;SDS011;32017;43.700;11.820;2022-07-17T06:51:11;0.80;;;0.80;;
46282;SDS011;32017;43.700;11.820;2022-07-17T06:53:32;0.80;;;0.80;;
46282;SDS011;32017;43.700;11.820;2022-07-17T06:55:53;1.38;;;0.80;;
46282;SDS011;32017;43.700;11.820;2022-07-17T06:58:13;0.70;;;0.70;;
46282;SDS011;32017;43.700;11.820;2022-07-17T07:00:34;0.80;;;0.80;;
46282;SDS011;32017;43.700;11.820;2022-07-17T07:02:55;0.75;;;0.75;;
46282;SDS011;32017;43.700;11.820;2022-07-17T07:05:15;1.38;;;0.70;;
46282;SDS011;32017;43.700;11.820;2022-07-17T07:07:36;0.70;;;0.70;;
46282;SDS011;32017;43.700;11.820;2022-07-17T07:09:57;0.82;;;0.68;;
46282;SDS011;32017;43.700;11.820;2022-07-17T07:12:17;0.70;;;0.70;;
46282;SDS011;32017;43.700;11.820;2022-07-17T07:14:38;0.80;;;0.80;;
46282;SDS011;32017;43.700;11.820;2022-07-17T07:16:59;1.23;;;0.70;;
46282;SDS011;32017;43.700;11.820;2022-07-17T07:19:20;0.70;;;0.70;;
46282;SDS011;32017;43.700;11.820;2022-07-17T07:21:41;0.70;;;0.70;;
46282;SDS011;32017;43.700;11.820;2022-07-17T07:24:02;0.70;;;0.70;;
46282;SDS011;32017;43.700;11.820;2022-07-17T07:26:23;0.70;;;0.70;;
46282;SDS011;32017;43.700;11.820;2022-07-17T07:28:43;1.38;;;0.60;;
46282;SDS011;32017;43.700;11.820;2022-07-17T07:31:04;0.60;;;0.60;;
46282;SDS011;32017;43.700;11.820;2022-07-17T07:33:25;0.70;;;0.70;;
46282;SDS011;32017;43.700;11.820;2022-07-17T07:35:46;5.57;;;0.60;;
46282;SDS011;32017;43.700;11.820;2022-07-17T07:38:07;0.60;;;0.60;;
46282;SDS011;32017;43.700;11.820;2022-07-17T07:40:28;0.60;;;0.60;;
46282;SDS011;32017;43.700;11.820;2022-07-17T07:42:49;2.67;;;0.57;;
46282;SDS011;32017;43.700;11.820;2022-07-17T07:45:09;0.60;;;0.60;;
46282;SDS011;32017;43.700;11.820;2022-07-17T07:47:30;0.93;;;0.60;;
46282;SDS011;32017;43.700;11.820;2022-07-17T07:49:51;1.35;;;0.60;;
46282;SDS011;32017;43.700;11.820;2022-07-17T07:52:11;0.50;;;0.50;;
46282;SDS011;32017;43.700;11.820;2022-07-17T07:54:32;1.67;;;0.60;;
46282;SDS011;32017;43.700;11.820;2022-07-17T07:56:53;0.60;;;0.60;;
46282;SDS011;32017;43.700;11.820;2022-07-17T07:59:14;9.60;;;0.60;;
46282;SDS011;32017;43.700;11.820;2022-07-17T08:01:34;0.50;;;0.50;;
46282;SDS011;32017;43.700;11.820;2022-07-17T08:03:55;1.48;;;0.60;;
46282;SDS011;32017;43.700;11.820;2022-07-17T08:06:16;0.75;;;0.50;;
46282;SDS011;32017;43.700;11.820;2022-07-17T08:08:36;3.55;;;0.50;;
46282;SDS011;32017;43.700;11.820;2022-07-17T08:10:58;3.22;;;0.50;;
46282;SDS011;32017;43.700;11.820;2022-07-17T08:13:19;0.50;;;0.50;;
46282;SDS011;32017;43.700;11.820;2022-07-17T08:15:40;0.60;;;0.60;;
46282;SDS011;32017;43.700;11.820;2022-07-17T08:18:01;1.55;;;0.60;;
46282;SDS011;32017;43.700;11.820;2022-07-17T08:20:22;0.68;;;0.68;;
46282;SDS011;32017;43.700;11.820;2022-07-17T08:22:43;4.03;;;0.70;;
46282;SDS011;32017;43.700;11.820;2022-07-17T08:25:23;1.13;;;0.50;;
46282;SDS011;32017;43.700;11.820;2022-07-17T08:27:44;2.25;;;0.60;;
46282;SDS011;32017;43.700;11.820;2022-07-17T08:30:05;0.50;;;0.50;;
46282;SDS011;32017;43.700;11.820;2022-07-17T08:32:27;1.95;;;0.50;;
46282;SDS011;32017;43.700;11.820;2022-07-17T08:34:48;1.60;;;0.45;;
46282;SDS011;32017;43.700;11.820;2022-07-17T08:37:08;0.73;;;0.50;;
46282;SDS011;32017;43.700;11.820;2022-07-17T08:39:29;0.50;;;0.50;;
46282;SDS011;32017;43.700;11.820;2022-07-17T08:41:50;0.50;;;0.50;;
46282;SDS011;32017;43.700;11.820;2022-07-17T08:44:11;0.40;;;0.40;;
46282;SDS011;32017;43.700;11.820;2022-07-17T08:46:32;1.20;;;0.50;;
46282;SDS011;32017;43.700;11.820;2022-07-17T08:48:57;1.23;;;0.50;;
46282;SDS011;32017;43.700;11.820;2022-07-17T08:51:18;1.15;;;0.40;;
46282;SDS011;32017;43.700;11.820;2022-07-17T08:53:40;0.82;;;0.50;;
46282;SDS011;32017;43.700;11.820;2022-07-17T08:56:02;0.50;;;0.50;;
46282;SDS011;32017;43.700;11.820;2022-07-17T09:00:44;1.65;;;0.50;;
46282;SDS011;32017;43.700;11.820;2022-07-17T09:03:06;0.95;;;0.40;;
46282;SDS011;32017;43.700;11.820;2022-07-17T09:05:31;0.50;;;0.50;;
46282;SDS011;32017;43.700;11.820;2022-07-17T09:07:54;0.57;;;0.40;;
46282;SDS011;32017;43.700;11.820;2022-07-17T09:10:14;0.40;;;0.40;;
46282;SDS011;32017;43.700;11.820;2022-07-17T09:12:35;0.40;;;0.40;;
46282;SDS011;32017;43.700;11.820;2022-07-17T09:14:56;0.43;;;0.43;;
46282;SDS011;32017;43.700;11.820;2022-07-17T09:17:17;0.40;;;0.40;;
46282;SDS011;32017;43.700;11.820;2022-07-17T09:19:42;0.40;;;0.40;;
46282;SDS011;32017;43.700;11.820;2022-07-17T09:27:09;0.93;;;0.40;;
46282;SDS011;32017;43.700;11.820;2022-07-17T09:29:30;2.78;;;0.50;;
46282;SDS011;32017;43.700;11.820;2022-07-17T09:31:51;0.30;;;0.30;;
46282;SDS011;32017;43.700;11.820;2022-07-17T09:36:37;1.02;;;0.88;;
46282;SDS011;32017;43.700;11.820;2022-07-17T09:38:58;0.45;;;0.45;;
46282;SDS011;32017;43.700;11.820;2022-07-17T09:41:19;0.40;;;0.40;;
46282;SDS011;32017;43.700;11.820;2022-07-17T09:48:36;0.93;;;0.50;;
46282;SDS011;32017;43.700;11.820;2022-07-17T09:51:02;3.95;;;3.75;;
46282;SDS011;32017;43.700;11.820;2022-07-17T09:53:23;0.32;;;0.32;;
46282;SDS011;32017;43.700;11.820;2022-07-17T09:55:44;0.40;;;0.40;;
46282;SDS011;32017;43.700;11.820;2022-07-17T09:58:07;0.30;;;0.30;;
46282;SDS011;32017;43.700;11.820;2022-07-17T10:00:30;0.55;;;0.40;;
46282;SDS011;32017;43.700;11.820;2022-07-17T10:02:55;1.17;;;0.40;;
46282;SDS011;32017;43.700;11.820;2022-07-17T10:07:38;0.40;;;0.40;;
46282;SDS011;32017;43.700;11.820;2022-07-17T10:10:02;2.25;;;0.40;;
46282;SDS011;32017;43.700;11.820;2022-07-17T10:12:23;1.33;;;0.40;;
46282;SDS011;32017;43.700;11.820;2022-07-17T10:14:46;2.33;;;0.40;;
46282;SDS011;32017;43.700;11.820;2022-07-17T10:17:08;0.98;;;0.40;;
46282;SDS011;32017;43.700;11.820;2022-07-17T10:19:32;0.40;;;0.40;;
46282;SDS011;32017;43.700;11.820;2022-07-17T10:21:54;0.85;;;0.40;;
46282;SDS011;32017;43.700;11.820;2022-07-17T10:24:19;0.77;;;0.30;;
46282;SDS011;32017;43.700;11.820;2022-07-17T10:26:41;0.40;;;0.40;;
46282;SDS011;32017;43.700;11.820;2022-07-17T10:32:07;1.42;;;0.75;;
46282;SDS011;32017;43.700;11.820;2022-07-17T10:34:39;0.95;;;0.60;;
46282;SDS011;32017;43.700;11.820;2022-07-17T10:37:02;0.30;;;0.30;;
46282;SDS011;32017;43.700;11.820;2022-07-17T10:39:33;1.65;;;0.40;;
46282;SDS011;32017;43.700;11.820;2022-07-17T10:41:58;0.40;;;0.40;;
46282;SDS011;32017;43.700;11.820;2022-07-17T10:44:30;0.40;;;0.40;;
46282;SDS011;32017;43.700;11.820;2022-07-17T10:46:54;1.35;;;0.43;;
46282;SDS011;32017;43.700;11.820;2022-07-17T10:49:15;0.50;;;0.50;;
46282;SDS011;32017;43.700;11.820;2022-07-17T10:51:36;0.30;;;0.30;;
46282;SDS011;32017;43.700;11.820;2022-07-17T10:53:59;0.40;;;0.40;;
46282;SDS011;32017;43.700;11.820;2022-07-17T10:56:21;1.27;;;0.85;;
46282;SDS011;32017;43.700;11.820;2022-07-17T10:58:42;1.27;;;0.30;;
46282;SDS011;32017;43.700;11.820;2022-07-17T11:01:08;1.20;;;0.40;;
46282;SDS011;32017;43.700;11.820;2022-07-17T11:03:40;0.50;;;0.50;;
46282;SDS011;32017;43.700;11.820;2022-07-17T11:06:22;0.50;;;0.50;;
46282;SDS011;32017;43.700;11.820;2022-07-17T11:08:49;0.70;;;0.47;;
46282;SDS011;32017;43.700;11.820;2022-07-17T11:11:19;0.35;;;0.35;;
46282;SDS011;32017;43.700;11.820;2022-07-17T11:13:49;0.40;;;0.40;;
46282;SDS011;32017;43.700;11.820;2022-07-17T11:16:10;0.40;;;0.40;;
46282;SDS011;32017;43.700;11.820;2022-07-17T11:18:31;0.55;;;0.40;;
46282;SDS011;32017;43.700;11.820;2022-07-17T11:20:55;0.65;;;0.40;;
46282;SDS011;32017;43.700;11.820;2022-07-17T11:23:18;0.38;;;0.38;;
46282;SDS011;32017;43.700;11.820;2022-07-17T11:25:51;2.42;;;0.40;;
46282;SDS011;32017;43.700;11.820;2022-07-17T11:28:29;0.40;;;0.40;;
46282;SDS011;32017;43.700;11.820;2022-07-17T11:30:54;1.88;;;0.40;;
46282;SDS011;32017;43.700;11.820;2022-07-17T11:33:15;0.88;;;0.40;;
46282;SDS011;32017;43.700;11.820;2022-07-17T11:35:36;2.13;;;0.38;;
46282;SDS011;32017;43.700;11.820;2022-07-17T11:38:01;0.40;;;0.40;;
46282;SDS011;32017;43.700;11.820;2022-07-17T11:40:22;0.40;;;0.40;;
46282;SDS011;32017;43.700;11.820;2022-07-17T11:42:43;0.40;;;0.40;;
46282;SDS011;32017;43.700;11.820;2022-07-17T11:45:04;3.65;;;0.80;;
46282;SDS011;32017;43.700;11.820;2022-07-17T11:47:26;1.48;;;0.40;;
46282;SDS011;32017;43.700;11.820;2022-07-17T11:49:48;0.30;;;0.30;;
46282;SDS011;32017;43.700;11.820;2022-07-17T11:52:10;0.40;;;0.40;;
46282;SDS011;32017;43.700;11.820;2022-07-17T11:54:45;0.40;;;0.40;;
46282;SDS011;32017;43.700;11.820;2022-07-17T11:57:12;0.40;;;0.40;;
46282;SDS011;32017;43.700;11.820;2022-07-17T11:59:33;2.05;;;0.40;;
46282;SDS011;32017;43.700;11.820;2022-07-17T12:01:54;1.15;;;0.40;;
46282;SDS011;32017;43.700;11.820;2022-07-17T12:04:15;1.45;;;0.57;;
46282;SDS011;32017;43.700;11.820;2022-07-17T12:06:36;0.40;;;0.40;;
46282;SDS011;32017;43.700;11.820;2022-07-17T12:08:57;0.40;;;0.40;;
46282;SDS011;32017;43.700;11.820;2022-07-17T12:11:18;0.30;;;0.30;;
46282;SDS011;32017;43.700;11.820;2022-07-17T12:13:43;3.05;;;0.40;;
46282;SDS011;32017;43.700;11.820;2022-07-17T12:18:40;4.57;;;0.40;;
46282;SDS011;32017;43.700;11.820;2022-07-17T12:21:02;0.60;;;0.40;;
46282;SDS011;32017;43.700;11.820;2022-07-17T12:23:30;0.75;;;0.40;;
46282;SDS011;32017;43.700;11.820;2022-07-17T12:28:43;0.40;;;0.40;;
46282;SDS011;32017;43.700;11.820;2022-07-17T12:31:04;0.47;;;0.47;;
46282;SDS011;32017;43.700;11.820;2022-07-17T12:33:27;0.40;;;0.40;;
46282;SDS011;32017;43.700;11.820;2022-07-17T12:35:48;0.40;;;0.40;;
46282;SDS011;32017;43.700;11.820;2022-07-17T12:38:09;0.50;;;0.40;;
46282;SDS011;32017;43.700;11.820;2022-07-17T12:40:29;0.40;;;0.40;;
46282;SDS011;32017;43.700;11.820;2022-07-17T12:42:50;0.57;;;0.50;;
46282;SDS011;32017;43.700;11.820;2022-07-17T12:45:11;0.38;;;0.38;;
46282;SDS011;32017;43.700;11.820;2022-07-17T12:47:31;0.40;;;0.40;;
46282;SDS011;32017;43.700;11.820;2022-07-17T12:49:52;0.40;;;0.40;;
46282;SDS011;32017;43.700;11.820;2022-07-17T12:52:12;0.45;;;0.45;;
46282;SDS011;32017;43.700;11.820;2022-07-17T12:54:33;0.40;;;0.40;;
46282;SDS011;32017;43.700;11.820;2022-07-17T12:56:54;0.40;;;0.40;;
46282;SDS011;32017;43.700;11.820;2022-07-17T12:59:15;0.55;;;0.43;;
46282;SDS011;32017;43.700;11.820;2022-07-17T13:01:35;0.80;;;0.50;;
46282;SDS011;32017;43.700;11.820;2022-07-17T13:03:57;0.50;;;0.50;;
46282;SDS011;32017;43.700;11.820;2022-07-17T13:06:17;0.98;;;0.60;;
46282;SDS011;32017;43.700;11.820;2022-07-17T13:08:38;1.42;;;0.50;;
46282;SDS011;32017;43.700;11.820;2022-07-17T13:11:00;1.73;;;0.50;;
46282;SDS011;32017;43.700;11.820;2022-07-17T13:13:29;0.88;;;0.50;;
46282;SDS011;32017;43.700;11.820;2022-07-17T13:15:50;0.90;;;0.50;;
46282;SDS011;32017;43.700;11.820;2022-07-17T13:18:11;0.50;;;0.50;;
46282;SDS011;32017;43.700;11.820;2022-07-17T13:20:31;1.77;;;0.50;;
46282;SDS011;32017;43.700;11.820;2022-07-17T13:22:52;0.82;;;0.50;;
46282;SDS011;32017;43.700;11.820;2022-07-17T13:25:12;1.55;;;0.50;;
46282;SDS011;32017;43.700;11.820;2022-07-17T13:27:33;6.00;;;0.80;;
46282;SDS011;32017;43.700;11.820;2022-07-17T13:29:54;1.65;;;0.60;;
46282;SDS011;32017;43.700;11.820;2022-07-17T13:32:14;2.72;;;0.82;;
46282;SDS011;32017;43.700;11.820;2022-07-17T13:34:36;0.60;;;0.50;;
46282;SDS011;32017;43.700;11.820;2022-07-17T13:36:56;4.20;;;0.65;;
46282;SDS011;32017;43.700;11.820;2022-07-17T13:39:24;0.90;;;0.52;;
46282;SDS011;32017;43.700;11.820;2022-07-17T13:41:44;3.50;;;0.70;;
46282;SDS011;32017;43.700;11.820;2022-07-17T13:44:05;1.08;;;0.60;;
46282;SDS011;32017;43.700;11.820;2022-07-17T13:46:27;1.60;;;0.60;;
46282;SDS011;32017;43.700;11.820;2022-07-17T13:48:49;1.80;;;0.60;;
46282;SDS011;32017;43.700;11.820;2022-07-17T13:51:09;1.77;;;0.65;;
46282;SDS011;32017;43.700;11.820;2022-07-17T13:53:32;0.70;;;0.70;;
46282;SDS011;32017;43.700;11.820;2022-07-17T13:55:52;1.33;;;0.60;;
46282;SDS011;32017;43.700;11.820;2022-07-17T13:58:13;2.75;;;1.02;;
46282;SDS011;32017;43.700;11.820;2022-07-17T14:00:34;1.73;;;1.00;;
46282;SDS011;32017;43.700;11.820;2022-07-17T14:02:55;1.83;;;0.65;;
46282;SDS011;32017;43.700;11.820;2022-07-17T14:05:16;4.82;;;1.05;;
46282;SDS011;32017;43.700;11.820;2022-07-17T14:07:37;5.07;;;1.27;;
46282;SDS011;32017;43.700;11.820;2022-07-17T14:09:57;3.97;;;0.80;;
46282;SDS011;32017;43.700;11.820;2022-07-17T14:12:18;2.85;;;1.33;;
46282;SDS011;32017;43.700;11.820;2022-07-17T14:14:39;6.28;;;1.00;;
46282;SDS011;32017;43.700;11.820;2022-07-17T14:17:00;5.25;;;1.00;;
46282;SDS011;32017;43.700;11.820;2022-07-17T14:19:21;4.68;;;1.85;;
46282;SDS011;32017;43.700;11.820;2022-07-17T14:21:41;7.13;;;1.10;;
46282;SDS011;32017;43.700;11.820;2022-07-17T14:24:03;2.67;;;1.05;;
46282;SDS011;32017;43.700;11.820;2022-07-17T14:26:25;2.58;;;1.35;;
46282;SDS011;32017;43.700;11.820;2022-07-17T14:28:47;3.78;;;1.10;;